createdAt,value
2023-05-01T00:02:02.022Z,6.27
2023-05-01T00:04:29.074Z,6.23
2023-05-01T00:06:55.741Z,6.20
2023-05-01T00:09:22.436Z,6.15
2023-05-01T00:11:49.074Z,6.16
2023-05-01T00:14:15.763Z,6.15
2023-05-01T00:16:42.847Z,6.16
2023-05-01T00:19:09.568Z,6.06
2023-05-01T00:21:36.181Z,5.98
2023-05-01T00:24:02.854Z,5.87
2023-05-01T00:26:31.518Z,5.80
2023-05-01T00:28:58.617Z,5.86
2023-05-01T00:31:25.973Z,5.83
2023-05-01T00:33:54.339Z,5.74
2023-05-01T00:36:20.967Z,5.78
2023-05-01T00:38:47.877Z,5.74
2023-05-01T00:41:14.640Z,5.71
2023-05-01T00:43:41.355Z,5.66
2023-05-01T00:46:08.640Z,5.67
2023-05-01T00:48:36.047Z,5.64
2023-05-01T00:51:05.140Z,5.56
2023-05-01T00:53:33.610Z,5.55
2023-05-01T00:56:01.004Z,5.52
2023-05-01T00:58:28.191Z,5.54
2023-05-01T01:00:55.484Z,5.51
2023-05-01T01:03:22.159Z,5.51
2023-05-01T01:05:53.839Z,5.48
2023-05-01T01:08:28.137Z,5.48
2023-05-01T01:11:21.802Z,5.52
2023-05-01T01:14:06.823Z,5.60
2023-05-01T01:16:46.652Z,5.62
2023-05-01T01:19:40.426Z,5.59
2023-05-01T01:22:11.952Z,5.56
2023-05-01T01:24:53.946Z,5.45
2023-05-01T01:27:31.292Z,5.43
2023-05-01T01:30:22.918Z,5.40
2023-05-01T01:33:18.244Z,5.36
2023-05-01T01:35:53.851Z,5.35
2023-05-01T01:38:23.992Z,5.30
2023-05-01T01:41:01.304Z,5.29
2023-05-01T01:43:31.709Z,5.29
2023-05-01T01:46:02.267Z,5.29
2023-05-01T01:48:36.440Z,5.22
2023-05-01T01:51:09.261Z,5.14
2023-05-01T01:53:37.897Z,5.15
2023-05-01T01:56:06.352Z,5.04
2023-05-01T01:58:35.921Z,4.99
2023-05-01T02:01:03.917Z,5.00
2023-05-01T02:03:34.054Z,4.93
2023-05-01T02:06:01.582Z,4.97
2023-05-01T02:08:30.905Z,4.96
2023-05-01T02:11:01.844Z,4.96
2023-05-01T02:13:30.425Z,4.98
2023-05-01T02:16:03.182Z,4.96
2023-05-01T02:18:31.251Z,4.94
2023-05-01T02:21:00.186Z,4.91
2023-05-01T02:23:31.036Z,4.84
2023-05-01T02:26:00.915Z,4.79
2023-05-01T02:28:29.961Z,4.72
2023-05-01T02:30:57.477Z,4.70
2023-05-01T02:33:24.193Z,4.69
2023-05-01T02:35:50.800Z,4.67
2023-05-01T02:38:18.654Z,4.65
2023-05-01T02:40:50.681Z,4.63
2023-05-01T02:43:20.480Z,4.64
2023-05-01T02:45:48.238Z,4.56
2023-05-01T02:48:18.906Z,4.56
2023-05-01T02:50:46.600Z,4.59
2023-05-01T02:53:13.638Z,4.53
2023-05-01T02:55:49.056Z,4.54
2023-05-01T02:58:17.099Z,4.54
2023-05-01T03:00:44.847Z,4.46
2023-05-01T03:03:12.262Z,4.50
2023-05-01T03:05:39.669Z,4.44
2023-05-01T03:08:06.850Z,4.40
2023-05-01T03:10:34.377Z,4.47
2023-05-01T03:13:01.231Z,4.45
2023-05-01T03:15:27.882Z,4.53
2023-05-01T03:17:54.585Z,4.48
2023-05-01T03:20:21.687Z,4.42
2023-05-01T03:22:48.363Z,4.37
2023-05-01T03:25:15.513Z,4.37
2023-05-01T03:27:42.571Z,4.36
2023-05-01T03:30:10.634Z,4.34
2023-05-01T03:32:40.673Z,4.38
2023-05-01T03:35:13.648Z,4.37
2023-05-01T03:37:40.427Z,4.40
2023-05-01T03:40:07.942Z,4.42
2023-05-01T03:43:10.014Z,4.47
2023-05-01T03:45:37.075Z,4.52
2023-05-01T03:48:03.958Z,4.56
2023-05-01T03:50:32.097Z,4.62
2023-05-01T03:52:59.008Z,4.80
2023-05-01T03:55:25.666Z,4.96
2023-05-01T03:57:52.878Z,5.06
2023-05-01T04:00:20.342Z,5.06
2023-05-01T04:02:47.636Z,5.13
2023-05-01T04:05:19.185Z,5.17
2023-05-01T04:07:50.685Z,5.22
2023-05-01T04:10:17.653Z,5.25
2023-05-01T04:12:52.316Z,5.26
2023-05-01T04:15:19.159Z,5.30
2023-05-01T04:17:46.228Z,5.35
2023-05-01T04:20:12.961Z,5.39
2023-05-01T04:22:40.274Z,5.44
2023-05-01T04:25:09.042Z,5.50
2023-05-01T04:27:35.824Z,5.58
2023-05-01T04:30:02.498Z,5.70
2023-05-01T04:32:30.976Z,5.91
2023-05-01T04:34:57.984Z,6.13
2023-05-01T04:37:24.751Z,6.36
2023-05-01T04:39:51.432Z,6.56
2023-05-01T04:42:20.607Z,6.78
2023-05-01T04:44:47.417Z,6.97
2023-05-01T04:47:14.674Z,7.17
2023-05-01T04:49:41.329Z,7.36
2023-05-01T04:52:08.034Z,7.56
2023-05-01T04:54:54.953Z,7.74
2023-05-01T04:57:23.793Z,7.85
2023-05-01T04:59:50.676Z,7.93
2023-05-01T05:02:17.400Z,8.08
2023-05-01T05:04:44.133Z,8.20
2023-05-01T05:07:10.919Z,8.37
2023-05-01T05:10:00.776Z,8.55
2023-05-01T05:12:27.816Z,8.74
2023-05-01T05:14:54.535Z,8.92
2023-05-01T05:17:21.425Z,9.13
2023-05-01T05:19:48.224Z,9.31
2023-05-01T05:22:15.727Z,9.48
2023-05-01T05:25:04.473Z,9.70
2023-05-01T05:27:36.455Z,9.90
2023-05-01T05:30:07.260Z,9.99
2023-05-01T05:32:35.482Z,10.14
2023-05-01T05:35:03.075Z,10.29
2023-05-01T05:37:29.968Z,10.41
2023-05-01T05:39:57.081Z,10.62
2023-05-01T05:42:24.260Z,10.77
2023-05-01T05:44:51.029Z,10.91
2023-05-01T05:47:17.731Z,11.05
2023-05-01T05:49:44.393Z,11.17
2023-05-01T05:52:11.165Z,11.32
2023-05-01T05:54:39.022Z,11.45
2023-05-01T05:57:05.787Z,11.57
2023-05-01T05:59:33.318Z,11.71
2023-05-01T06:02:00.476Z,11.80
2023-05-01T06:04:27.247Z,11.93
2023-05-01T06:06:54.511Z,11.97
2023-05-01T06:09:21.620Z,12.22
2023-05-01T06:11:48.353Z,12.47
2023-05-01T06:14:16.670Z,12.65
2023-05-01T06:16:44.152Z,12.86
2023-05-01T06:19:12.164Z,13.11
2023-05-01T06:21:39.739Z,13.34
2023-05-01T06:24:06.697Z,13.42
2023-05-01T06:26:41.838Z,13.67
2023-05-01T06:29:08.538Z,13.92
2023-05-01T06:31:35.406Z,14.04
2023-05-01T06:34:02.197Z,14.09
2023-05-01T06:36:34.991Z,13.97
2023-05-01T06:39:01.980Z,14.29
2023-05-01T06:41:30.532Z,14.58
2023-05-01T06:43:58.572Z,14.69
2023-05-01T06:46:26.544Z,14.75
2023-05-01T06:48:53.275Z,14.93
2023-05-01T06:51:20.033Z,15.05
2023-05-01T06:53:46.709Z,15.01
2023-05-01T06:56:13.389Z,15.09
2023-05-01T06:58:40.139Z,15.16
2023-05-01T07:01:07.945Z,15.25
2023-05-01T07:03:34.614Z,15.38
2023-05-01T07:06:01.360Z,15.39
2023-05-01T07:08:28.340Z,15.38
2023-05-01T07:10:55.063Z,15.24
2023-05-01T07:13:21.760Z,15.42
2023-05-01T07:15:49.154Z,15.43
2023-05-01T07:18:17.140Z,15.50
2023-05-01T07:20:43.903Z,15.48
2023-05-01T07:23:10.608Z,15.40
2023-05-01T07:25:44.453Z,15.34
2023-05-01T07:28:11.280Z,15.36
2023-05-01T07:30:37.934Z,15.57
2023-05-01T07:33:05.999Z,15.71
2023-05-01T07:35:33.040Z,15.86
2023-05-01T07:37:59.754Z,15.75
2023-05-01T07:40:26.393Z,15.96
2023-05-01T07:42:54.581Z,16.08
2023-05-01T07:45:21.459Z,16.19
2023-05-01T07:47:48.164Z,16.34
2023-05-01T07:50:14.889Z,16.40
2023-05-01T07:52:41.552Z,16.67
2023-05-01T07:55:08.912Z,16.85
2023-05-01T07:57:36.263Z,17.00
2023-05-01T08:00:03.181Z,16.97
2023-05-01T08:02:41.163Z,17.18
2023-05-01T08:05:08.375Z,17.28
2023-05-01T08:07:35.079Z,17.43
2023-05-01T08:10:02.085Z,17.68
2023-05-01T08:12:29.706Z,17.89
2023-05-01T08:14:56.367Z,18.09
2023-05-01T08:17:23.005Z,18.41
2023-05-01T08:19:50.383Z,18.65
2023-05-01T08:22:17.058Z,18.80
2023-05-01T08:24:44.106Z,18.86
2023-05-01T08:27:10.883Z,18.83
2023-05-01T08:29:37.534Z,18.89
2023-05-01T08:32:04.149Z,18.91
2023-05-01T08:34:31.051Z,18.78
2023-05-01T08:36:59.570Z,19.01
2023-05-01T08:39:26.303Z,19.02
2023-05-01T08:41:53.167Z,18.90
2023-05-01T08:44:20.791Z,18.99
2023-05-01T08:47:00.526Z,18.94
2023-05-01T08:49:27.536Z,19.00
2023-05-01T08:51:57.037Z,19.09
2023-05-01T08:54:24.501Z,18.88
2023-05-01T08:56:51.844Z,18.95
2023-05-01T08:59:19.551Z,19.00
2023-05-01T09:01:47.328Z,19.08
2023-05-01T09:04:14.868Z,19.12
2023-05-01T09:06:41.795Z,19.03
2023-05-01T09:09:08.483Z,19.07
2023-05-01T09:11:36.748Z,19.24
2023-05-01T09:14:05.670Z,19.27
2023-05-01T09:16:32.917Z,19.35
2023-05-01T09:18:59.804Z,19.42
2023-05-01T09:21:29.255Z,19.56
2023-05-01T09:23:56.252Z,19.65
2023-05-01T09:26:23.017Z,19.87
2023-05-01T09:28:51.783Z,20.02
2023-05-01T09:31:22.944Z,20.05
2023-05-01T09:33:55.061Z,20.00
2023-05-01T09:36:23.106Z,20.15
2023-05-01T09:38:49.830Z,20.09
2023-05-01T09:41:16.883Z,20.08
2023-05-01T09:43:50.426Z,20.30
2023-05-01T09:46:17.385Z,20.35
2023-05-01T09:48:55.185Z,20.50
2023-05-01T09:51:22.645Z,20.64
2023-05-01T09:53:49.969Z,20.65
2023-05-01T09:56:17.415Z,20.71
2023-05-01T09:58:44.584Z,20.91
2023-05-01T10:01:11.464Z,20.94
2023-05-01T10:03:38.431Z,21.06
2023-05-01T10:06:05.630Z,21.07
2023-05-01T10:08:45.994Z,20.97
2023-05-01T10:11:12.817Z,21.08
2023-05-01T10:13:39.557Z,21.00
2023-05-01T10:16:08.650Z,20.96
2023-05-01T10:18:35.970Z,21.15
2023-05-01T10:21:04.192Z,21.13
2023-05-01T10:23:31.137Z,21.13
2023-05-01T10:25:59.439Z,21.27
2023-05-01T10:28:28.860Z,21.13
2023-05-01T10:30:56.383Z,21.22
2023-05-01T10:33:23.547Z,21.29
2023-05-01T10:35:56.853Z,20.97
2023-05-01T10:38:27.123Z,21.09
2023-05-01T10:40:53.795Z,21.27
2023-05-01T10:43:25.794Z,21.35
2023-05-01T10:45:53.705Z,21.39
2023-05-01T10:48:39.142Z,21.34
2023-05-01T10:51:27.812Z,21.30
2023-05-01T10:54:13.929Z,21.48
2023-05-01T10:56:43.105Z,21.38
2023-05-01T10:59:10.605Z,21.40
2023-05-01T11:01:37.771Z,21.53
2023-05-01T11:04:24.591Z,21.65
2023-05-01T11:07:10.938Z,21.93
2023-05-01T11:09:41.335Z,22.14
2023-05-01T11:12:09.497Z,22.48
2023-05-01T11:14:54.621Z,22.72
2023-05-01T11:17:39.939Z,23.03
2023-05-01T11:20:11.432Z,23.36
2023-05-01T11:22:42.811Z,23.30
2023-05-01T11:25:27.432Z,23.10
2023-05-01T11:27:56.706Z,23.13
2023-05-01T11:30:23.358Z,23.00
2023-05-01T11:32:51.132Z,23.08
2023-05-01T11:35:19.061Z,22.87
2023-05-01T11:37:46.250Z,22.80
2023-05-01T11:40:45.396Z,22.68
2023-05-01T11:43:12.784Z,22.92
2023-05-01T11:45:41.482Z,22.77
2023-05-01T11:48:16.478Z,22.78
2023-05-01T11:50:43.325Z,22.97
2023-05-01T11:53:16.003Z,23.15
2023-05-01T11:55:42.953Z,23.17
2023-05-01T11:58:09.591Z,23.40
2023-05-01T12:00:38.149Z,23.65
2023-05-01T12:03:06.861Z,23.79
2023-05-01T12:05:38.188Z,23.67
2023-05-01T12:08:20.581Z,23.51
2023-05-01T12:10:50.469Z,23.74
2023-05-01T12:13:17.195Z,24.06
2023-05-01T12:15:46.175Z,23.97
2023-05-01T12:18:13.980Z,23.95
2023-05-01T12:20:46.264Z,23.79
2023-05-01T12:23:16.226Z,23.90
2023-05-01T12:25:43.937Z,23.83
2023-05-01T12:28:14.268Z,23.98
2023-05-01T12:30:42.144Z,23.95
2023-05-01T12:33:19.292Z,23.98
2023-05-01T12:35:47.850Z,23.95
2023-05-01T12:38:22.384Z,24.33
2023-05-01T12:40:53.941Z,24.52
2023-05-01T12:43:31.468Z,24.37
2023-05-01T12:45:58.754Z,24.27
2023-05-01T12:48:25.805Z,24.21
2023-05-01T12:50:55.592Z,24.19
2023-05-01T12:53:23.646Z,24.20
2023-05-01T12:55:52.193Z,24.17
2023-05-01T12:58:19.260Z,23.75
2023-05-01T13:00:49.905Z,23.95
2023-05-01T13:03:23.468Z,23.70
2023-05-01T13:05:58.318Z,23.96
2023-05-01T13:08:27.266Z,23.84
2023-05-01T13:10:57.081Z,24.34
2023-05-01T13:13:29.467Z,24.51
2023-05-01T13:16:06.211Z,24.71
2023-05-01T13:18:33.924Z,24.34
2023-05-01T13:21:08.764Z,24.84
2023-05-01T13:23:39.517Z,25.32
2023-05-01T13:26:07.604Z,25.44
2023-05-01T13:28:35.648Z,25.43
2023-05-01T13:31:02.585Z,25.28
2023-05-01T13:33:31.423Z,25.39
2023-05-01T13:35:58.260Z,25.11
2023-05-01T13:38:25.273Z,24.86
2023-05-01T13:40:51.903Z,24.70
2023-05-01T13:43:18.632Z,24.80
2023-05-01T13:45:47.329Z,24.94
2023-05-01T13:48:17.108Z,25.43
2023-05-01T13:50:43.810Z,25.40
2023-05-01T13:53:10.457Z,26.36
2023-05-01T13:55:40.124Z,27.83
2023-05-01T13:58:07.287Z,28.14
2023-05-01T14:00:34.270Z,27.34
2023-05-01T14:03:01.092Z,26.89
2023-05-01T14:05:30.655Z,26.29
2023-05-01T14:07:58.904Z,26.20
2023-05-01T14:10:29.872Z,26.15
2023-05-01T14:12:58.777Z,25.90
2023-05-01T14:15:25.692Z,25.78
2023-05-01T14:17:53.043Z,25.40
2023-05-01T14:20:19.936Z,25.37
2023-05-01T14:22:53.591Z,25.22
2023-05-01T14:25:31.610Z,25.18
2023-05-01T14:27:59.390Z,24.88
2023-05-01T14:30:40.212Z,24.97
2023-05-01T14:33:14.120Z,24.73
2023-05-01T14:35:51.527Z,24.52
2023-05-01T14:38:19.622Z,24.38
2023-05-01T14:40:46.511Z,24.13
2023-05-01T14:43:15.080Z,24.05
2023-05-01T14:45:45.404Z,24.14
2023-05-01T14:48:23.181Z,24.08
2023-05-01T14:50:51.021Z,23.87
2023-05-01T14:53:17.742Z,23.92
2023-05-01T14:55:44.548Z,23.75
2023-05-01T14:58:11.205Z,23.51
2023-05-01T15:00:37.877Z,23.50
2023-05-01T15:03:04.638Z,23.60
2023-05-01T15:05:31.456Z,23.38
2023-05-01T15:08:00.435Z,23.38
2023-05-01T15:10:27.080Z,23.11
2023-05-01T15:12:53.747Z,23.07
2023-05-01T15:15:20.688Z,23.11
2023-05-01T15:17:47.373Z,22.98
2023-05-01T15:20:14.067Z,22.95
2023-05-01T15:22:41.125Z,23.03
2023-05-01T15:25:09.937Z,23.06
2023-05-01T15:27:36.626Z,22.72
2023-05-01T15:30:05.267Z,22.87
2023-05-01T15:32:32.191Z,22.90
2023-05-01T15:34:59.190Z,23.02
2023-05-01T15:37:26.129Z,23.09
2023-05-01T15:39:52.852Z,23.19
2023-05-01T15:42:19.934Z,23.19
2023-05-01T15:44:47.736Z,23.17
2023-05-01T15:47:14.893Z,23.03
2023-05-01T15:49:41.608Z,23.00
2023-05-01T15:52:08.354Z,22.94
2023-05-01T15:54:35.324Z,22.83
2023-05-01T15:57:03.217Z,22.67
2023-05-01T15:59:30.607Z,22.58
2023-05-01T16:01:57.539Z,22.15
2023-05-01T16:04:24.168Z,22.11
2023-05-01T16:06:51.311Z,22.00
2023-05-01T16:09:18.998Z,21.90
2023-05-01T16:11:45.657Z,21.86
2023-05-01T16:14:12.765Z,21.86
2023-05-01T16:16:41.847Z,21.72
2023-05-01T16:19:08.716Z,21.57
2023-05-01T16:21:36.888Z,21.62
2023-05-01T16:24:03.837Z,21.64
2023-05-01T16:26:31.495Z,21.60
2023-05-01T16:29:05.349Z,21.45
2023-05-01T16:31:38.947Z,21.29
2023-05-01T16:34:07.186Z,21.16
2023-05-01T16:36:42.996Z,21.10
2023-05-01T16:39:14.605Z,21.02
2023-05-01T16:41:48.528Z,20.90
2023-05-01T16:44:16.622Z,20.84
2023-05-01T16:46:45.590Z,20.75
2023-05-01T16:49:13.704Z,20.70
2023-05-01T16:51:43.809Z,20.60
2023-05-01T16:54:10.851Z,20.49
2023-05-01T16:56:38.416Z,20.43
2023-05-01T16:59:05.097Z,20.27
2023-05-01T17:01:31.762Z,20.15
2023-05-01T17:03:58.572Z,20.02
2023-05-01T17:06:25.368Z,19.93
2023-05-01T17:08:52.249Z,19.66
2023-05-01T17:11:19.093Z,19.58
2023-05-01T17:13:45.822Z,19.57
2023-05-01T17:16:12.547Z,19.45
2023-05-01T17:18:39.227Z,19.30
2023-05-01T17:21:06.803Z,19.19
2023-05-01T17:23:33.452Z,19.08
2023-05-01T17:26:00.593Z,19.04
2023-05-01T17:28:27.317Z,19.02
2023-05-01T17:30:54.124Z,18.89
2023-05-01T17:33:21.149Z,18.75
2023-05-01T17:35:48.248Z,18.63
2023-05-01T17:38:14.889Z,18.65
2023-05-01T17:40:41.578Z,18.47
2023-05-01T17:43:08.222Z,18.44
2023-05-01T17:45:34.841Z,18.37
2023-05-01T17:48:01.779Z,18.19
2023-05-01T17:50:28.402Z,18.09
2023-05-01T17:52:55.062Z,18.01
2023-05-01T17:55:21.815Z,17.98
2023-05-01T17:57:48.558Z,17.78
2023-05-01T18:00:16.320Z,17.66
2023-05-01T18:02:44.881Z,17.59
2023-05-01T18:05:12.390Z,17.47
2023-05-01T18:07:39.052Z,17.47
2023-05-01T18:10:06.303Z,17.34
2023-05-01T18:12:33.350Z,17.21
2023-05-01T18:14:59.972Z,17.13
2023-05-01T18:17:26.833Z,17.03
2023-05-01T18:19:53.478Z,17.06
2023-05-01T18:22:20.270Z,16.95
2023-05-01T18:24:47.056Z,17.04
2023-05-01T18:27:14.459Z,16.96
2023-05-01T18:29:41.126Z,16.87
2023-05-01T18:32:09.366Z,16.82
2023-05-01T18:34:36.699Z,16.74
2023-05-01T18:37:03.341Z,16.66
2023-05-01T18:39:30.299Z,16.58
2023-05-01T18:41:56.872Z,16.72
2023-05-01T18:44:23.570Z,16.66
2023-05-01T18:46:50.246Z,16.60
2023-05-01T18:49:21.058Z,16.61
2023-05-01T18:51:48.641Z,16.51
2023-05-01T18:54:16.135Z,16.41
2023-05-01T18:56:43.062Z,16.43
2023-05-01T18:59:09.660Z,16.42
2023-05-01T19:01:37.089Z,16.54
2023-05-01T19:04:03.818Z,16.36
2023-05-01T19:06:31.368Z,16.32
2023-05-01T19:08:58.400Z,16.39
2023-05-01T19:11:30.272Z,16.36
2023-05-01T19:13:57.077Z,16.24
2023-05-01T19:16:24.715Z,16.17
2023-05-01T19:18:51.888Z,16.14
2023-05-01T19:21:18.556Z,16.18
2023-05-01T19:23:46.567Z,16.12
2023-05-01T19:26:13.797Z,16.00
2023-05-01T19:28:43.459Z,15.92
2023-05-01T19:31:12.429Z,15.85
2023-05-01T19:33:41.221Z,15.90
2023-05-01T19:36:07.811Z,15.93
2023-05-01T19:38:34.555Z,15.89
2023-05-01T19:41:01.367Z,15.82
2023-05-01T19:43:28.017Z,15.76
2023-05-01T19:45:54.782Z,15.75
2023-05-01T19:48:22.028Z,15.71
2023-05-01T19:50:51.100Z,15.65
2023-05-01T19:53:18.389Z,15.65
2023-05-01T19:55:47.183Z,15.57
2023-05-01T19:58:15.118Z,15.50
2023-05-01T20:00:42.033Z,15.39
2023-05-01T20:03:09.800Z,15.36
2023-05-01T20:05:37.317Z,15.17
2023-05-01T20:08:05.094Z,15.14
2023-05-01T20:10:31.800Z,15.01
2023-05-01T20:12:58.523Z,14.94
2023-05-01T20:15:25.849Z,14.88
2023-05-01T20:17:52.843Z,14.85
2023-05-01T20:20:20.100Z,14.80
2023-05-01T20:22:47.056Z,14.69
2023-05-01T20:25:13.847Z,14.65
2023-05-01T20:27:41.222Z,14.65
2023-05-01T20:30:12.743Z,14.61
2023-05-01T20:32:44.255Z,14.61
2023-05-01T20:35:11.644Z,14.61
2023-05-01T20:37:38.361Z,14.59
2023-05-01T20:40:06.421Z,14.59
2023-05-01T20:42:33.097Z,14.54
2023-05-01T20:44:59.751Z,14.50
2023-05-01T20:47:27.463Z,14.51
2023-05-01T20:49:54.620Z,14.46
2023-05-01T20:52:21.441Z,14.51
2023-05-01T20:54:48.075Z,14.41
2023-05-01T20:57:16.516Z,14.36
2023-05-01T20:59:49.999Z,14.30
2023-05-01T21:02:17.430Z,14.29
2023-05-01T21:04:46.212Z,14.30
2023-05-01T21:07:12.934Z,14.24
2023-05-01T21:09:48.975Z,14.19
2023-05-01T21:12:15.756Z,14.18
2023-05-01T21:14:42.437Z,14.15
2023-05-01T21:17:09.479Z,14.10
2023-05-01T21:19:46.721Z,14.09
2023-05-01T21:22:18.668Z,14.10
2023-05-01T21:24:45.573Z,14.06
2023-05-01T21:27:12.429Z,13.99
2023-05-01T21:29:40.817Z,13.94
2023-05-01T21:32:08.127Z,13.87
2023-05-01T21:34:35.007Z,13.85
2023-05-01T21:37:01.666Z,13.75
2023-05-01T21:39:28.427Z,13.66
2023-05-01T21:41:55.167Z,13.60
2023-05-01T21:44:22.776Z,13.57
2023-05-01T21:46:50.947Z,13.55
2023-05-01T21:49:23.060Z,13.43
2023-05-01T21:51:49.921Z,13.38
2023-05-01T21:54:16.705Z,13.28
2023-05-01T21:56:43.536Z,13.28
2023-05-01T21:59:10.329Z,13.16
2023-05-01T22:01:38.673Z,13.18
2023-05-01T22:04:07.107Z,13.03
2023-05-01T22:06:34.051Z,12.94
2023-05-01T22:09:00.842Z,12.83
2023-05-01T22:11:28.078Z,12.82
2023-05-01T22:13:54.791Z,12.73
2023-05-01T22:16:21.523Z,12.72
2023-05-01T22:18:49.751Z,12.68
2023-05-01T22:21:16.911Z,12.67
2023-05-01T22:23:43.554Z,12.58
2023-05-01T22:26:10.460Z,12.63
2023-05-01T22:28:37.147Z,12.55
2023-05-01T22:31:03.901Z,12.48
2023-05-01T22:33:30.661Z,12.48
2023-05-01T22:35:57.390Z,12.43
2023-05-01T22:38:24.048Z,12.43
2023-05-01T22:40:50.709Z,12.36
2023-05-01T22:43:17.414Z,12.39
2023-05-01T22:45:44.082Z,12.33
2023-05-01T22:48:10.883Z,12.33
2023-05-01T22:50:37.585Z,12.31
2023-05-01T22:53:04.284Z,12.29
2023-05-01T22:55:31.106Z,12.30
2023-05-01T22:57:57.769Z,12.32
2023-05-01T23:00:24.571Z,12.34
2023-05-01T23:02:51.520Z,12.33
2023-05-01T23:05:18.457Z,12.37
2023-05-01T23:07:45.188Z,12.41
2023-05-01T23:10:12.469Z,12.47
2023-05-01T23:12:43.806Z,12.53
2023-05-01T23:15:17.001Z,12.54
2023-05-01T23:17:44.237Z,12.57
2023-05-01T23:20:13.451Z,12.57
2023-05-01T23:22:40.626Z,12.55
2023-05-01T23:25:07.833Z,12.61
2023-05-01T23:27:36.177Z,12.65
2023-05-01T23:32:32.469Z,12.72
2023-05-01T23:35:10.152Z,12.73
2023-05-01T23:37:36.876Z,12.75
2023-05-01T23:40:04.333Z,12.75
2023-05-01T23:42:31.517Z,12.77
2023-05-01T23:44:58.200Z,12.77
2023-05-01T23:47:25.029Z,12.75
2023-05-01T23:49:52.035Z,12.72
2023-05-01T23:52:18.751Z,12.73
2023-05-01T23:54:45.392Z,12.75
2023-05-01T23:57:12.146Z,12.71
2023-05-01T23:59:38.836Z,12.66
